• Join FlightAware (Why Join?)
  • Login
  • US Flag 
12:16AM EDT


 

Airport Tracker/Info


-or-


 

Live Flight TrackerFlight Track Log ✈ FWK90 ✈ 27-Apr-2012 ✈ KBNA - KJAX

Flight Track Log - Related Links

Times and Time Zones

All times are in EDT time to prevent confusion due to time zone crossing. See the FWK90 flight status page for this flight to view local times or setup timezone preferences in your user account.

Time Position Orientation Groundspeed Altitude Reporting Facility
EDT Latitude Longitude Course Direction KTS MPH feet Rate Location/Type
02:49PM 36.1333 -86.6833 39° Northeast 175 201 1,400  Level Nashville TRACON
02:49PM 36.1500 -86.6667 11° North 188 216 3,200 3,300 Climbing Nashville TRACON
02:50PM 36.2167 -86.6500 103° East 261 300 6,400 3,180 Climbing Nashville TRACON
02:52PM 36.1981 -86.5531 172° South 324 373 10,700 3,240 Climbing Memphis Center
02:53PM 36.0975 -86.5347 174° South 306 352 14,000 3,180 Climbing Memphis Center
02:54PM 35.9928 -86.5217 144° Southeast 357 411 17,100 2,760 Climbing Memphis Center
02:56PM 35.8069 -86.3536 143° Southeast 435 501 22,300 2,460 Climbing Atlanta Center
02:57PM 35.7189 -86.2717 144° Southeast 445 512 24,500 2,160 Climbing Atlanta Center
02:58PM 35.6183 -86.1822 144° Southeast 450 518 26,700 2,100 Climbing Atlanta Center
02:59PM 35.5011 -86.0769 142° Southeast 455 524 28,800 1,140 Climbing Atlanta Center
03:00PM 35.4044 -85.9856 146° Southeast 475 547 29,000 420 Climbing Atlanta Center
03:01PM 35.2914 -85.8911 143° Southeast 489 563 29,700 1,320 Climbing Atlanta Center
03:02PM 35.1739 -85.7844 144° Southeast 489 563 31,700 1,980 Climbing Atlanta Center
03:03PM 35.0667 -85.6883 144° Southeast 484 557 33,700 1,920 Climbing Atlanta Center
03:04PM 34.9594 -85.5922 143° Southeast 484 557 35,600 1,680 Climbing Atlanta Center
03:05PM 34.8564 -85.4967 143° Southeast 484 557 37,100 1,200 Climbing Atlanta Center
03:06PM 34.7511 -85.3989 142° Southeast 473 544 38,000 420 Climbing Atlanta Center
03:07PM 34.6414 -85.2961 143° Southeast 480 552 38,000  Level Atlanta Center
03:08PM 34.5319 -85.1961 141° Southeast 493 567 38,000 300 Level Atlanta Center
03:09PM 34.4283 -85.0939 142° Southeast 488 562 38,600 780 Climbing Atlanta Center
03:10PM 34.3186 -84.9919 143° Southeast 488 562 39,600 960 Climbing Atlanta Center
03:11PM 34.2128 -84.8953 143° Southeast 488 562 40,600 660 Climbing Atlanta Center
03:12PM 34.1008 -84.7939 142° Southeast 483 556 41,000 180 Climbing Atlanta Center
03:13PM 33.9950 -84.6928 143° Southeast 490 564 41,000  Level Atlanta Center
03:14PM 33.8869 -84.5944 143° Southeast 490 564 41,000  Level Atlanta Center
03:15PM 33.7831 -84.5011 144° Southeast 484 557 41,000  Level Atlanta Center
03:16PM 33.6728 -84.4033 142° Southeast 482 555 41,000  Level Atlanta Center
03:17PM 33.5644 -84.3006 143° Southeast 488 562 41,000 -60 Level Atlanta Center
03:18PM 33.4603 -84.2081 143° Southeast 488 562 40,900 -840 Descending Atlanta Center
03:19PM 33.3517 -84.1083 143° Southeast 483 556 39,400 -1,500 Descending Atlanta Center
03:20PM 33.2494 -84.0164 143° Southeast 483 556 37,900 -1,560 Descending Atlanta Center
03:21PM 33.1367 -83.9147 141° Southeast 488 562 36,400 -1,560 Descending Atlanta Center
03:22PM 33.0300 -83.8133 145° Southeast 493 567 34,900 -1,260 Descending Atlanta Center
03:23PM 32.9192 -83.7197 143° Southeast 493 567 34,000 -480 Descending Atlanta Center
03:24PM 32.8103 -83.6236 143° Southeast 493 567 34,000  Level Atlanta Center
03:25PM 32.7014 -83.5278 143° Southeast 493 567 34,000  Level Atlanta Center
03:26PM 32.5925 -83.4300 143° Southeast 493 567 34,000 -120 Level Atlanta Center
03:27PM 32.4856 -83.3347 143° Southeast 488 562 33,800 -1,260 Descending Atlanta Center
03:30PM 32.0683 -82.9661 144° Southeast 474 545 27,900 -1,560 Descending Jacksonville Center
03:31PM 31.9661 -82.8778 145° Southeast 463 533 26,400 -1,500 Descending Jacksonville Center
03:32PM 31.8658 -82.7947 143° Southeast 452 520 24,900 -1,200 Descending Jacksonville Center
03:33PM 31.7656 -82.7069 144° Southeast 447 514 24,000 -1,260 Descending Jacksonville Center
03:34PM 31.6672 -82.6242 143° Southeast 447 514 22,400 -1,620 Descending Jacksonville Center
03:35PM 31.5711 -82.5389 150° Southeast 447 514 20,800 -1,680 Descending Jacksonville Center
03:36PM 31.4728 -82.4736 158° South 433 498 19,100 -1,620 Descending Jacksonville Center
03:37PM 31.3681 -82.4253 159° South 414 476 17,600 -1,500 Descending Jacksonville Center
03:38PM 31.2739 -82.3822 156° South 404 465 16,100 -1,500 Descending Jacksonville Center
03:39PM 31.1756 -82.3317 157° South 398 458 14,600 -1,620 Descending Jacksonville Center
03:40PM 31.1128 -82.3006 155° Southeast 379 436 13,600 -1,320 Descending Jacksonville Center
03:41PM 30.9808 -82.2286 137° Southeast 356 410 12,000 -840 Descending Jacksonville Center
03:42PM 30.9075 -82.1492 137° Southeast 355 409 11,700 -900 Descending Jacksonville Center
03:43PM 30.8486 -82.0844 136° Southeast 345 397 10,300 -1,500 Descending Jacksonville Center
03:44PM 30.7897 -82.0172 137° Southeast 319 367 8,800 -1,500 Descending Jacksonville Center
03:45PM 30.7286 -81.9500 136° Southeast 305 351 7,300 -1,500 Descending Jacksonville Center
03:46PM 30.6739 -81.8878 114° Southeast 293 337 5,800 -1,560 Descending Jacksonville Center
03:47PM 30.6439 -81.8083 93° East 281 323 4,200 -1,620 Descending Jacksonville Center
03:49PM 30.6389 -81.7022 95° East 270 311 2,500 -1,200 Descending Jacksonville Center
03:49PM 30.6342 -81.6394 152° Southeast 254 292 1,900 -300 Descending Jacksonville Center
03:51PM 30.5775 -81.6042 185° South 187 215 1,900 -240 Level Jacksonville Center
03:52PM 30.5294 -81.6094 243° Southwest 162 186 1,400 -720 Descending Jacksonville Center
03:53PM 30.5111 -81.6508 243° Southwest 141 162 500 -900 Descending Jacksonville Center